createdAt,value
2024-03-05T00:00:29.159Z,44.25
2024-03-05T00:02:55.805Z,44.28
2024-03-05T00:05:22.470Z,44.01
2024-03-05T00:07:49.185Z,43.72
2024-03-05T00:10:15.993Z,44.26
2024-03-05T00:12:43.156Z,44.38
2024-03-05T00:15:10.273Z,44.29
2024-03-05T00:17:38.224Z,43.71
2024-03-05T00:20:05.517Z,44.26
2024-03-05T00:22:32.236Z,44.31
2024-03-05T00:25:00.052Z,44.60
2024-03-05T00:27:27.263Z,44.65
2024-03-05T00:29:53.968Z,44.40
2024-03-05T00:32:20.654Z,44.75
2024-03-05T00:34:47.336Z,44.76
2024-03-05T00:37:14.311Z,44.35
2024-03-05T00:39:40.969Z,44.46
2024-03-05T00:42:07.702Z,44.36
2024-03-05T00:44:34.382Z,43.92
2024-03-05T00:47:01.393Z,44.52
2024-03-05T00:49:28.204Z,44.45
2024-03-05T00:51:54.898Z,44.69
2024-03-05T00:54:21.679Z,44.43
2024-03-05T00:56:48.319Z,44.96
2024-03-05T00:59:14.943Z,44.95
2024-03-05T01:01:41.682Z,44.56
2024-03-05T01:04:09.398Z,44.27
2024-03-05T01:06:36.176Z,44.81
2024-03-05T01:09:03.828Z,44.25
2024-03-05T01:11:31.110Z,44.47
2024-03-05T01:13:58.783Z,44.23
2024-03-05T01:16:27.511Z,44.18
2024-03-05T01:18:56.666Z,44.43
2024-03-05T01:21:23.402Z,44.24
2024-03-05T01:23:50.177Z,44.44
2024-03-05T01:26:16.951Z,44.23
2024-03-05T01:28:44.095Z,44.50
2024-03-05T01:31:10.944Z,44.17
2024-03-05T01:33:38.818Z,44.63
2024-03-05T01:36:05.817Z,44.75
2024-03-05T01:38:32.456Z,44.60
2024-03-05T01:40:59.104Z,44.69
2024-03-05T01:43:25.862Z,45.28
2024-03-05T01:45:52.590Z,44.50
2024-03-05T01:48:19.271Z,44.91
2024-03-05T01:50:46.185Z,44.91
2024-03-05T01:53:13.105Z,44.48
2024-03-05T01:55:39.790Z,44.42
2024-03-05T01:58:07.274Z,45.01
2024-03-05T02:00:34.183Z,44.93
2024-03-05T02:03:00.822Z,44.88
2024-03-05T02:05:27.464Z,44.67
2024-03-05T02:07:57.024Z,44.18
2024-03-05T02:10:23.772Z,44.96
2024-03-05T02:12:50.496Z,44.52
2024-03-05T02:15:17.272Z,44.66
2024-03-05T02:17:44.001Z,44.56
2024-03-05T02:20:13.344Z,44.75
2024-03-05T02:22:40.169Z,44.12
2024-03-05T02:25:07.076Z,44.73
2024-03-05T02:27:35.310Z,44.98
2024-03-05T02:30:03.945Z,44.76
2024-03-05T02:32:30.750Z,44.84
2024-03-05T02:34:57.451Z,44.68
2024-03-05T02:37:24.154Z,45.01
2024-03-05T02:39:51.046Z,44.61
2024-03-05T02:42:17.731Z,45.02
2024-03-05T02:44:44.420Z,44.78
2024-03-05T02:47:11.394Z,44.39
2024-03-05T02:49:38.151Z,44.24
2024-03-05T02:52:05.062Z,44.90
2024-03-05T02:54:31.750Z,44.71
2024-03-05T02:56:58.484Z,44.70
2024-03-05T02:59:25.339Z,44.81
2024-03-05T03:01:52.108Z,45.17
2024-03-05T03:04:18.862Z,45.31
2024-03-05T03:06:45.530Z,44.75
2024-03-05T03:09:12.263Z,44.58
2024-03-05T03:11:42.469Z,44.84
2024-03-05T03:14:10.361Z,44.74
2024-03-05T03:16:37.113Z,44.77
2024-03-05T03:19:05.773Z,44.58
2024-03-05T03:21:32.606Z,44.88
2024-03-05T03:23:59.214Z,44.64
2024-03-05T03:26:26.138Z,44.96
2024-03-05T03:28:53.459Z,44.68
2024-03-05T03:31:20.557Z,44.86
2024-03-05T03:33:47.223Z,44.37
2024-03-05T03:36:24.779Z,44.71
2024-03-05T03:38:52.175Z,44.78
2024-03-05T03:41:20.815Z,44.54
2024-03-05T03:43:48.499Z,45.21
2024-03-05T03:46:15.438Z,43.81
2024-03-05T03:48:42.211Z,44.24
2024-03-05T03:51:09.022Z,44.30
2024-03-05T03:53:38.721Z,44.53
2024-03-05T03:56:05.717Z,44.83
2024-03-05T03:58:32.472Z,44.82
2024-03-05T04:01:00.410Z,44.56
2024-03-05T04:03:27.161Z,45.07
2024-03-05T04:05:54.060Z,44.84
2024-03-05T04:08:20.666Z,45.05
2024-03-05T04:10:47.410Z,45.01
2024-03-05T04:13:14.188Z,45.02
2024-03-05T04:15:40.987Z,45.33
2024-03-05T04:18:07.680Z,45.20
2024-03-05T04:20:34.311Z,45.63
2024-03-05T04:23:01.146Z,44.97
2024-03-05T04:25:35.550Z,45.39
2024-03-05T04:28:11.827Z,45.00
2024-03-05T04:30:43.461Z,45.19
2024-03-05T04:33:10.739Z,44.94
2024-03-05T04:35:38.202Z,45.24
2024-03-05T04:38:07.984Z,44.67
2024-03-05T04:40:35.183Z,44.96
2024-03-05T04:43:01.962Z,45.10
2024-03-05T04:45:28.655Z,45.07
2024-03-05T04:47:55.840Z,45.37
2024-03-05T04:50:22.563Z,44.99
2024-03-05T04:52:49.292Z,45.36
2024-03-05T04:55:16.482Z,44.99
2024-03-05T04:57:43.274Z,45.11
2024-03-05T05:00:21.314Z,45.29
2024-03-05T05:02:49.139Z,45.17
2024-03-05T05:05:16.997Z,44.94
2024-03-05T05:07:44.798Z,45.33
2024-03-05T05:10:11.755Z,45.05
2024-03-05T05:12:39.733Z,45.21
2024-03-05T05:15:09.504Z,45.17
2024-03-05T05:17:36.450Z,45.19
2024-03-05T05:20:05.436Z,45.01
2024-03-05T05:22:32.209Z,45.45
2024-03-05T05:24:58.854Z,45.11
2024-03-05T05:27:25.876Z,45.25
2024-03-05T05:29:55.834Z,44.71
2024-03-05T05:32:23.236Z,45.41
2024-03-05T05:34:49.908Z,45.10
2024-03-05T05:37:16.884Z,45.30
2024-03-05T05:39:43.686Z,44.90
2024-03-05T05:42:13.235Z,44.82
2024-03-05T05:44:39.882Z,45.50
2024-03-05T05:47:06.579Z,45.15
2024-03-05T05:49:33.710Z,45.48
2024-03-05T05:52:00.826Z,45.23
2024-03-05T05:54:27.428Z,45.08
2024-03-05T05:56:54.124Z,45.89
2024-03-05T05:59:20.784Z,44.53
2024-03-05T06:01:47.484Z,46.14
2024-03-05T06:04:16.401Z,45.17
2024-03-05T06:06:43.235Z,45.19
2024-03-05T06:09:10.302Z,45.53
2024-03-05T06:11:40.149Z,45.40
2024-03-05T06:14:07.781Z,45.32
2024-03-05T06:16:34.805Z,45.76
2024-03-05T06:19:01.519Z,45.54
2024-03-05T06:21:28.314Z,45.48
2024-03-05T06:23:54.952Z,45.62
2024-03-05T06:26:21.594Z,45.02
2024-03-05T06:28:48.283Z,45.20
2024-03-05T06:31:15.172Z,45.39
2024-03-05T06:33:42.223Z,45.17
2024-03-05T06:36:08.925Z,45.91
2024-03-05T06:38:35.827Z,45.30
2024-03-05T06:41:03.167Z,45.53
2024-03-05T06:43:39.231Z,45.21
2024-03-05T06:46:06.141Z,45.24
2024-03-05T06:48:34.578Z,45.31
2024-03-05T06:51:06.294Z,45.35
2024-03-05T06:53:51.492Z,45.15
2024-03-05T06:56:36.966Z,45.46
2024-03-05T06:59:05.153Z,45.08
2024-03-05T07:01:33.616Z,45.39
2024-03-05T07:04:00.833Z,45.22
2024-03-05T07:06:27.488Z,44.98
2024-03-05T07:08:56.462Z,45.24
2024-03-05T07:11:24.006Z,45.32
2024-03-05T07:13:51.087Z,44.85
2024-03-05T07:16:18.632Z,44.91
2024-03-05T07:18:46.297Z,44.35
2024-03-05T07:21:12.930Z,44.99
2024-03-05T07:23:41.162Z,45.13
2024-03-05T07:26:08.417Z,45.57
2024-03-05T07:28:35.421Z,44.23
2024-03-05T07:31:03.250Z,45.07
2024-03-05T07:33:30.399Z,45.31
2024-03-05T07:35:57.063Z,45.01
2024-03-05T07:38:23.681Z,45.24
2024-03-05T07:40:50.456Z,45.39
2024-03-05T07:43:17.631Z,45.84
2024-03-05T07:45:46.208Z,44.92
2024-03-05T07:48:15.104Z,44.78
2024-03-05T07:50:42.387Z,45.26
2024-03-05T07:53:09.661Z,45.55
2024-03-05T07:55:45.986Z,44.55
2024-03-05T07:58:13.916Z,45.35
2024-03-05T08:00:40.737Z,45.36
2024-03-05T08:03:07.560Z,45.55
2024-03-05T08:05:36.167Z,44.56
2024-03-05T08:08:03.718Z,44.93
2024-03-05T08:10:30.725Z,45.28
2024-03-05T08:12:57.462Z,45.09
2024-03-05T08:15:26.011Z,44.79
2024-03-05T08:17:53.209Z,45.07
2024-03-05T08:20:20.936Z,44.80
2024-03-05T08:22:48.056Z,45.21
2024-03-05T08:25:18.947Z,45.29
2024-03-05T08:27:46.585Z,44.71
2024-03-05T08:30:18.698Z,44.97
2024-03-05T08:32:45.540Z,44.81
2024-03-05T08:35:15.133Z,45.36
2024-03-05T08:37:42.592Z,45.21
2024-03-05T08:40:29.148Z,44.89
2024-03-05T08:42:56.694Z,44.68
2024-03-05T08:45:25.059Z,45.25
2024-03-05T08:47:53.277Z,44.98
2024-03-05T08:50:20.124Z,44.95
2024-03-05T08:52:46.839Z,44.75
2024-03-05T08:55:14.284Z,45.28
2024-03-05T08:57:43.763Z,45.29
2024-03-05T09:00:31.977Z,45.33
2024-03-05T09:03:08.770Z,45.64
2024-03-05T09:05:37.111Z,45.46
2024-03-05T09:08:04.306Z,45.06
2024-03-05T09:10:31.674Z,45.13
2024-03-05T09:12:59.700Z,45.02
2024-03-05T09:15:27.118Z,45.02
2024-03-05T09:17:53.924Z,45.76
2024-03-05T09:20:20.612Z,45.05
2024-03-05T09:22:47.785Z,45.51
2024-03-05T09:25:15.338Z,45.26
2024-03-05T09:27:43.557Z,45.66
2024-03-05T09:30:11.023Z,45.28
2024-03-05T09:32:37.843Z,45.15
2024-03-05T09:35:10.122Z,45.35
2024-03-05T09:37:37.535Z,45.48
2024-03-05T09:40:07.311Z,45.21
2024-03-05T09:42:34.420Z,45.16
2024-03-05T09:45:06.904Z,45.05
2024-03-05T09:47:37.187Z,45.12
2024-03-05T09:50:05.110Z,45.17
2024-03-05T09:52:32.608Z,45.29
2024-03-05T09:55:00.923Z,45.30
2024-03-05T09:57:29.837Z,44.54
2024-03-05T09:59:57.105Z,45.27
2024-03-05T10:02:25.885Z,44.65
2024-03-05T10:04:55.090Z,45.16
2024-03-05T10:07:28.450Z,45.50
2024-03-05T10:10:14.278Z,45.44
2024-03-05T10:12:41.162Z,45.28
2024-03-05T10:15:30.383Z,45.08
2024-03-05T10:17:58.080Z,45.08
2024-03-05T10:20:26.522Z,45.10
2024-03-05T10:22:53.872Z,44.97
2024-03-05T10:25:21.363Z,45.84
2024-03-05T10:27:48.355Z,45.13
2024-03-05T10:30:25.245Z,44.78
2024-03-05T10:33:00.574Z,45.07
2024-03-05T10:35:28.066Z,45.21
2024-03-05T10:37:59.237Z,45.49
2024-03-05T10:40:26.330Z,45.43
2024-03-05T10:42:53.895Z,45.32
2024-03-05T10:45:23.183Z,45.10
2024-03-05T10:47:50.679Z,45.19
2024-03-05T10:50:18.583Z,45.16
2024-03-05T10:52:45.536Z,44.86
2024-03-05T10:55:12.669Z,45.14
2024-03-05T10:58:02.637Z,45.26
2024-03-05T11:00:29.246Z,45.69
2024-03-05T11:02:59.021Z,45.13
2024-03-05T11:05:26.884Z,45.15
2024-03-05T11:07:54.506Z,45.03
2024-03-05T11:10:21.586Z,45.12
2024-03-05T11:12:48.468Z,45.04
2024-03-05T11:15:15.113Z,44.95
2024-03-05T11:17:43.556Z,45.44
2024-03-05T11:20:13.574Z,45.35
2024-03-05T11:22:45.887Z,45.25
2024-03-05T11:25:32.045Z,45.37
2024-03-05T11:28:01.549Z,45.19
2024-03-05T11:30:30.052Z,49.48
2024-03-05T11:32:56.713Z,50.09
2024-03-05T11:35:25.855Z,47.57
2024-03-05T11:37:53.541Z,45.24
2024-03-05T11:40:24.492Z,42.32
2024-03-05T11:42:54.428Z,39.79
2024-03-05T11:45:45.658Z,38.50
2024-03-05T11:48:13.985Z,36.75
2024-03-05T11:50:40.709Z,35.80
2024-03-05T11:53:07.996Z,36.19
2024-03-05T11:55:34.662Z,36.66
2024-03-05T11:58:01.352Z,38.19
2024-03-05T12:00:29.923Z,37.68
2024-03-05T12:02:57.639Z,38.62
2024-03-05T12:05:24.820Z,39.16
2024-03-05T12:08:08.220Z,39.42
2024-03-05T12:10:37.811Z,39.90
2024-03-05T12:13:07.507Z,40.13
2024-03-05T12:15:36.269Z,40.52
2024-03-05T12:18:10.017Z,38.59
2024-03-05T12:20:37.524Z,37.67
2024-03-05T12:23:04.848Z,37.21
2024-03-05T12:25:33.395Z,37.12
2024-03-05T12:28:01.348Z,37.28
2024-03-05T12:30:34.991Z,37.14
2024-03-05T12:33:01.909Z,38.30
2024-03-05T12:35:29.268Z,38.77
2024-03-05T12:37:56.889Z,38.70
2024-03-05T12:40:26.680Z,39.33
2024-03-05T12:42:53.385Z,38.46
2024-03-05T12:45:20.218Z,39.35
2024-03-05T12:47:56.592Z,39.58
2024-03-05T12:50:23.462Z,38.56
2024-03-05T12:53:01.532Z,38.79
2024-03-05T12:55:29.181Z,38.39
2024-03-05T12:58:08.694Z,38.32
2024-03-05T13:00:35.924Z,36.63
2024-03-05T13:03:05.664Z,35.59
2024-03-05T13:05:35.746Z,34.96
2024-03-05T13:08:02.558Z,35.63
2024-03-05T13:10:29.265Z,36.55
2024-03-05T13:12:56.554Z,36.15
2024-03-05T13:15:23.182Z,37.07
2024-03-05T13:17:51.966Z,36.25
2024-03-05T13:20:21.817Z,37.14
2024-03-05T13:22:55.414Z,36.94
2024-03-05T13:25:24.950Z,37.70
2024-03-05T13:27:54.472Z,37.24
2024-03-05T13:30:21.941Z,37.64
2024-03-05T13:32:49.275Z,37.98
2024-03-05T13:35:16.707Z,37.64
2024-03-05T13:37:49.079Z,37.75
2024-03-05T13:40:22.423Z,38.23
2024-03-05T13:42:49.436Z,37.13
2024-03-05T13:45:19.679Z,37.00
2024-03-05T13:47:47.061Z,36.76
2024-03-05T13:50:17.441Z,36.32
2024-03-05T13:52:45.066Z,36.32
2024-03-05T13:55:12.793Z,36.17
2024-03-05T13:57:39.496Z,37.21
2024-03-05T14:00:08.955Z,38.30
2024-03-05T14:02:36.825Z,38.79
2024-03-05T14:05:04.505Z,37.95
2024-03-05T14:07:32.037Z,38.54
2024-03-05T14:09:58.941Z,38.41
2024-03-05T14:12:25.730Z,38.86
2024-03-05T14:14:52.427Z,39.06
2024-03-05T14:17:19.170Z,38.96
2024-03-05T14:19:46.641Z,38.63
2024-03-05T14:22:14.064Z,39.44
2024-03-05T14:24:40.724Z,39.78
2024-03-05T14:27:07.570Z,39.49
2024-03-05T14:29:34.305Z,40.05
2024-03-05T14:32:01.264Z,41.12
2024-03-05T14:34:28.406Z,39.46
2024-03-05T14:36:55.141Z,39.64
2024-03-05T14:39:22.531Z,38.96
2024-03-05T14:41:49.309Z,39.72
2024-03-05T14:44:16.435Z,39.08
2024-03-05T14:46:43.244Z,38.16
2024-03-05T14:49:10.070Z,37.43
2024-03-05T14:51:36.779Z,36.71
2024-03-05T14:54:04.261Z,35.73
2024-03-05T14:56:31.669Z,35.06
2024-03-05T14:58:58.547Z,35.36
2024-03-05T15:01:26.929Z,34.70
2024-03-05T15:03:53.682Z,33.96
2024-03-05T15:06:20.878Z,34.36
2024-03-05T15:08:47.686Z,34.46
2024-03-05T15:11:14.546Z,35.16
2024-03-05T15:13:41.355Z,34.87
2024-03-05T15:16:09.115Z,35.20
2024-03-05T15:18:36.553Z,35.92
2024-03-05T15:21:15.084Z,36.09
2024-03-05T15:23:42.466Z,36.19
2024-03-05T15:26:10.513Z,36.67
2024-03-05T15:28:38.159Z,37.07
2024-03-05T15:31:10.090Z,37.04
2024-03-05T15:33:40.262Z,37.22
2024-03-05T15:36:07.347Z,36.71
2024-03-05T15:38:34.489Z,37.10
2024-03-05T15:41:01.868Z,36.96
2024-03-05T15:43:28.792Z,37.33
2024-03-05T15:45:55.475Z,37.35
2024-03-05T15:48:22.720Z,37.64
2024-03-05T15:50:49.487Z,37.89
2024-03-05T15:53:17.351Z,38.16
2024-03-05T15:55:46.607Z,38.27
2024-03-05T15:58:32.455Z,38.27
2024-03-05T16:00:59.475Z,38.36
2024-03-05T16:03:26.470Z,37.79
2024-03-05T16:06:00.741Z,38.05
2024-03-05T16:08:33.525Z,37.98
2024-03-05T16:11:00.703Z,37.84
2024-03-05T16:13:31.247Z,37.99
2024-03-05T16:15:58.297Z,38.96
2024-03-05T16:18:25.727Z,39.00
2024-03-05T16:20:53.806Z,39.76
2024-03-05T16:23:20.774Z,38.70
2024-03-05T16:25:47.759Z,40.12
2024-03-05T16:28:15.217Z,39.59
2024-03-05T16:30:42.618Z,39.26
2024-03-05T16:33:09.540Z,39.11
2024-03-05T16:35:37.196Z,38.92
2024-03-05T16:38:07.856Z,38.84
2024-03-05T16:40:39.310Z,39.01
2024-03-05T16:43:07.338Z,38.69
2024-03-05T16:45:35.327Z,38.35
2024-03-05T16:48:06.459Z,39.04
2024-03-05T16:50:33.567Z,38.60
2024-03-05T16:53:00.364Z,39.19
2024-03-05T16:55:27.626Z,37.91
2024-03-05T16:58:00.565Z,39.35
2024-03-05T17:00:38.115Z,38.65
2024-03-05T17:03:10.238Z,39.49
2024-03-05T17:05:40.307Z,39.10
2024-03-05T17:08:11.606Z,39.23
2024-03-05T17:10:40.973Z,38.65
2024-03-05T17:13:12.508Z,39.34
2024-03-05T17:15:39.598Z,39.73
2024-03-05T17:18:07.106Z,38.87
2024-03-05T17:20:34.506Z,39.69
2024-03-05T17:23:03.495Z,38.58
2024-03-05T17:25:34.773Z,39.10
2024-03-05T17:31:22.161Z,39.46
2024-03-05T17:33:48.806Z,39.24
2024-03-05T17:36:15.529Z,38.37
2024-03-05T17:38:43.265Z,39.04
2024-03-05T17:41:09.998Z,38.67
2024-03-05T17:43:37.085Z,39.00
2024-03-05T17:46:05.952Z,38.10
2024-03-05T17:48:32.874Z,38.16
2024-03-05T17:50:59.801Z,39.13
2024-03-05T17:53:26.761Z,38.06
2024-03-05T17:55:53.821Z,38.94
2024-03-05T17:58:20.915Z,38.65
2024-03-05T18:00:48.182Z,39.02
2024-03-05T18:03:15.506Z,38.98
2024-03-05T18:05:46.504Z,37.99
2024-03-05T18:08:14.078Z,38.66
2024-03-05T18:10:41.059Z,38.57
2024-03-05T18:13:08.215Z,38.79
2024-03-05T18:15:35.524Z,37.99
2024-03-05T18:18:03.591Z,39.05
2024-03-05T18:20:30.609Z,39.13
2024-03-05T18:23:01.288Z,38.94
2024-03-05T18:25:35.569Z,38.53
2024-03-05T18:28:03.336Z,39.05
2024-03-05T18:30:30.009Z,38.56
2024-03-05T18:32:57.030Z,38.97
2024-03-05T18:35:25.775Z,37.86
2024-03-05T18:37:52.643Z,37.91
2024-03-05T18:40:19.514Z,38.39
2024-03-05T18:42:49.634Z,38.40
2024-03-05T18:45:16.950Z,37.99
2024-03-05T18:47:58.447Z,38.61
2024-03-05T18:50:30.113Z,38.19
2024-03-05T18:53:02.406Z,38.53
2024-03-05T18:55:31.405Z,38.98
2024-03-05T18:57:58.765Z,38.21
2024-03-05T19:00:26.864Z,38.92
2024-03-05T19:02:53.574Z,38.19
2024-03-05T19:05:20.641Z,38.73
2024-03-05T19:07:47.745Z,38.87
2024-03-05T19:10:14.455Z,38.54
2024-03-05T19:12:41.161Z,38.00
2024-03-05T19:15:08.439Z,38.76
2024-03-05T19:17:35.449Z,38.08
2024-03-05T19:20:02.806Z,38.71
2024-03-05T19:22:30.271Z,38.92
2024-03-05T19:25:00.161Z,37.98
2024-03-05T19:27:26.930Z,38.24
2024-03-05T19:29:55.433Z,38.10
2024-03-05T19:32:22.121Z,38.44
2024-03-05T19:34:49.189Z,38.15
2024-03-05T19:37:16.527Z,38.41
2024-03-05T19:39:43.170Z,38.18
2024-03-05T19:42:11.582Z,38.94
2024-03-05T19:44:38.533Z,38.00
2024-03-05T19:47:05.287Z,38.38
2024-03-05T19:49:32.110Z,37.94
2024-03-05T19:51:59.716Z,38.44
2024-03-05T19:54:29.358Z,38.31
2024-03-05T19:56:57.152Z,38.33
2024-03-05T19:59:23.941Z,38.00
2024-03-05T20:01:50.744Z,38.05
2024-03-05T20:04:17.788Z,38.21
2024-03-05T20:06:44.806Z,38.30
2024-03-05T20:09:14.512Z,38.79
2024-03-05T20:11:41.620Z,38.77
2024-03-05T20:14:09.998Z,38.46
2024-03-05T20:16:37.075Z,38.12
2024-03-05T20:19:03.732Z,38.13
2024-03-05T20:21:30.472Z,38.75
2024-03-05T20:23:57.731Z,38.38
2024-03-05T20:26:24.630Z,38.42
2024-03-05T20:28:53.701Z,38.93
2024-03-05T20:31:22.955Z,38.79
2024-03-05T20:33:49.951Z,38.71
2024-03-05T20:36:19.637Z,38.46
2024-03-05T20:38:46.685Z,38.35
2024-03-05T20:41:14.555Z,38.83
2024-03-05T20:43:41.534Z,38.82
2024-03-05T20:46:10.983Z,38.86
2024-03-05T20:48:38.205Z,38.50
2024-03-05T20:51:05.212Z,38.68
2024-03-05T20:53:31.918Z,38.40
2024-03-05T20:55:59.304Z,38.71
2024-03-05T20:58:26.044Z,38.41
2024-03-05T21:00:52.776Z,38.43
2024-03-05T21:03:22.738Z,38.71
2024-03-05T21:05:49.920Z,38.16
2024-03-05T21:08:16.636Z,38.28
2024-03-05T21:10:44.775Z,38.76
2024-03-05T21:13:11.550Z,38.62
2024-03-05T21:15:38.353Z,38.69
2024-03-05T21:18:09.782Z,38.50
2024-03-05T21:20:37.549Z,38.63
2024-03-05T21:23:05.505Z,38.57
2024-03-05T21:25:40.024Z,38.71
2024-03-05T21:28:16.492Z,38.43
2024-03-05T21:30:43.667Z,38.92
2024-03-05T21:33:10.358Z,38.79
2024-03-05T21:35:37.018Z,38.53
2024-03-05T21:38:03.678Z,38.81
2024-03-05T21:40:30.326Z,38.91
2024-03-05T21:42:57.075Z,38.56
2024-03-05T21:45:23.704Z,38.29
2024-03-05T21:47:50.885Z,38.60
2024-03-05T21:50:17.709Z,38.56
2024-03-05T21:52:47.744Z,38.87
2024-03-05T21:55:16.377Z,38.52
2024-03-05T21:57:43.507Z,38.44
2024-03-05T22:00:12.447Z,39.07
2024-03-05T22:02:43.063Z,38.87
2024-03-05T22:05:10.563Z,38.39
2024-03-05T22:07:37.318Z,39.05
2024-03-05T22:10:07.161Z,38.74
2024-03-05T22:12:41.112Z,39.06
2024-03-05T22:15:09.264Z,39.11
2024-03-05T22:17:36.778Z,38.88
2024-03-05T22:20:03.816Z,38.73
2024-03-05T22:22:30.690Z,38.65
2024-03-05T22:24:57.814Z,38.88
2024-03-05T22:27:24.473Z,38.92
2024-03-05T22:29:51.332Z,38.74
2024-03-05T22:32:18.081Z,39.07
2024-03-05T22:34:44.817Z,38.81
2024-03-05T22:37:11.508Z,38.61
2024-03-05T22:39:38.914Z,38.84
2024-03-05T22:42:05.609Z,38.90
2024-03-05T22:44:32.304Z,39.37
2024-03-05T22:46:59.039Z,39.15
2024-03-05T22:49:25.754Z,39.45
2024-03-05T22:51:52.391Z,38.88
2024-03-05T22:54:19.214Z,39.53
2024-03-05T22:56:51.795Z,38.87
2024-03-05T22:59:20.176Z,39.17
2024-03-05T23:01:47.288Z,39.11
2024-03-05T23:04:14.024Z,39.35
2024-03-05T23:06:40.708Z,38.72
2024-03-05T23:09:08.071Z,39.14
2024-03-05T23:11:34.941Z,39.12
2024-03-05T23:14:01.733Z,39.30
2024-03-05T23:16:28.423Z,39.27
2024-03-05T23:18:55.064Z,39.44
2024-03-05T23:21:21.695Z,39.62
2024-03-05T23:23:50.566Z,39.29
2024-03-05T23:26:19.245Z,38.52
2024-03-05T23:28:46.049Z,39.61
2024-03-05T23:31:12.712Z,39.54
2024-03-05T23:33:39.406Z,39.63
2024-03-05T23:36:06.473Z,39.68
2024-03-05T23:38:33.161Z,39.31
2024-03-05T23:41:00.341Z,39.76
2024-03-05T23:43:26.939Z,38.83
2024-03-05T23:45:55.567Z,39.36
2024-03-05T23:48:22.385Z,39.62
2024-03-05T23:50:49.393Z,39.34
2024-03-05T23:53:17.016Z,38.90
2024-03-05T23:55:44.968Z,38.75
2024-03-05T23:58:11.644Z,38.96
